sensor_id;sensor_type;location;lat;lon;timestamp;P1;durP1;ratioP1;P2;durP2;ratioP2
9222;SDS011;7557;51.698;3.942;2023-07-13T00:00:20;1088.45;;;993.13;;
9222;SDS011;7557;51.698;3.942;2023-07-13T00:02:47;1044.60;;;961.30;;
9222;SDS011;7557;51.698;3.942;2023-07-13T00:05:14;1029.32;;;953.67;;
9222;SDS011;7557;51.698;3.942;2023-07-13T00:07:43;984.13;;;914.95;;
9222;SDS011;7557;51.698;3.942;2023-07-13T00:10:11;871.83;;;821.08;;
9222;SDS011;7557;51.698;3.942;2023-07-13T00:12:38;848.22;;;799.70;;
9222;SDS011;7557;51.698;3.942;2023-07-13T00:15:07;850.45;;;803.28;;
9222;SDS011;7557;51.698;3.942;2023-07-13T00:17:39;896.05;;;842.35;;
9222;SDS011;7557;51.698;3.942;2023-07-13T00:20:06;941.58;;;878.97;;
9222;SDS011;7557;51.698;3.942;2023-07-13T00:22:35;932.30;;;871.70;;
9222;SDS011;7557;51.698;3.942;2023-07-13T00:25:04;949.47;;;886.25;;
9222;SDS011;7557;51.698;3.942;2023-07-13T00:27:32;941.83;;;879.88;;
9222;SDS011;7557;51.698;3.942;2023-07-13T00:29:59;948.05;;;884.38;;
9222;SDS011;7557;51.698;3.942;2023-07-13T00:32:27;943.80;;;880.30;;
9222;SDS011;7557;51.698;3.942;2023-07-13T00:34:55;891.88;;;837.47;;
9222;SDS011;7557;51.698;3.942;2023-07-13T00:37:24;998.50;;;925.70;;
9222;SDS011;7557;51.698;3.942;2023-07-13T00:39:51;1083.78;;;985.03;;
9222;SDS011;7557;51.698;3.942;2023-07-13T00:42:20;1157.57;;;999.90;;
9222;SDS011;7557;51.698;3.942;2023-07-13T00:45:01;1192.97;;;999.90;;
9222;SDS011;7557;51.698;3.942;2023-07-13T00:47:29;1186.80;;;999.90;;
9222;SDS011;7557;51.698;3.942;2023-07-13T00:49:56;1152.78;;;999.90;;
9222;SDS011;7557;51.698;3.942;2023-07-13T00:52:23;1193.15;;;999.90;;
9222;SDS011;7557;51.698;3.942;2023-07-13T00:54:51;1220.43;;;999.90;;
9222;SDS011;7557;51.698;3.942;2023-07-13T00:57:18;1218.40;;;999.90;;
9222;SDS011;7557;51.698;3.942;2023-07-13T00:59:50;1235.78;;;999.90;;
9222;SDS011;7557;51.698;3.942;2023-07-13T01:02:20;1170.60;;;999.90;;
9222;SDS011;7557;51.698;3.942;2023-07-13T01:04:47;1229.25;;;999.90;;
9222;SDS011;7557;51.698;3.942;2023-07-13T01:07:15;1334.45;;;999.90;;
9222;SDS011;7557;51.698;3.942;2023-07-13T01:09:42;1282.88;;;999.90;;
9222;SDS011;7557;51.698;3.942;2023-07-13T01:12:10;1281.78;;;999.90;;
9222;SDS011;7557;51.698;3.942;2023-07-13T01:14:40;1346.72;;;999.90;;
9222;SDS011;7557;51.698;3.942;2023-07-13T01:17:08;1404.93;;;999.90;;
9222;SDS011;7557;51.698;3.942;2023-07-13T01:19:37;1438.43;;;999.90;;
9222;SDS011;7557;51.698;3.942;2023-07-13T01:22:09;1426.57;;;999.90;;
9222;SDS011;7557;51.698;3.942;2023-07-13T01:24:39;1342.25;;;999.90;;
9222;SDS011;7557;51.698;3.942;2023-07-13T01:27:07;1468.93;;;999.90;;
9222;SDS011;7557;51.698;3.942;2023-07-13T01:29:36;1610.68;;;999.90;;
9222;SDS011;7557;51.698;3.942;2023-07-13T01:32:07;1477.35;;;999.90;;
9222;SDS011;7557;51.698;3.942;2023-07-13T01:34:35;1513.00;;;999.90;;
9222;SDS011;7557;51.698;3.942;2023-07-13T01:37:03;1545.78;;;999.90;;
9222;SDS011;7557;51.698;3.942;2023-07-13T01:39:34;1472.53;;;999.90;;
9222;SDS011;7557;51.698;3.942;2023-07-13T01:42:01;1564.35;;;999.90;;
9222;SDS011;7557;51.698;3.942;2023-07-13T01:44:28;1605.85;;;999.90;;
9222;SDS011;7557;51.698;3.942;2023-07-13T01:46:56;1452.40;;;999.90;;
9222;SDS011;7557;51.698;3.942;2023-07-13T01:49:23;1507.30;;;999.90;;
9222;SDS011;7557;51.698;3.942;2023-07-13T01:51:50;1447.85;;;999.90;;
9222;SDS011;7557;51.698;3.942;2023-07-13T01:54:18;1559.60;;;999.90;;
9222;SDS011;7557;51.698;3.942;2023-07-13T01:56:46;1600.00;;;999.90;;
9222;SDS011;7557;51.698;3.942;2023-07-13T01:59:13;1593.95;;;999.90;;
9222;SDS011;7557;51.698;3.942;2023-07-13T02:01:41;1582.18;;;999.90;;
9222;SDS011;7557;51.698;3.942;2023-07-13T02:04:08;1604.63;;;999.90;;
9222;SDS011;7557;51.698;3.942;2023-07-13T02:06:36;1617.05;;;999.90;;
9222;SDS011;7557;51.698;3.942;2023-07-13T02:09:03;1541.55;;;999.90;;
9222;SDS011;7557;51.698;3.942;2023-07-13T02:11:30;1468.82;;;999.90;;
9222;SDS011;7557;51.698;3.942;2023-07-13T02:14:01;1551.93;;;999.90;;
9222;SDS011;7557;51.698;3.942;2023-07-13T02:16:29;1512.28;;;999.90;;
9222;SDS011;7557;51.698;3.942;2023-07-13T02:18:56;1559.28;;;999.90;;
9222;SDS011;7557;51.698;3.942;2023-07-13T02:21:25;1609.35;;;999.90;;
9222;SDS011;7557;51.698;3.942;2023-07-13T02:23:52;1506.00;;;999.90;;
9222;SDS011;7557;51.698;3.942;2023-07-13T02:26:20;1374.72;;;999.90;;
9222;SDS011;7557;51.698;3.942;2023-07-13T02:28:47;1576.65;;;999.90;;
9222;SDS011;7557;51.698;3.942;2023-07-13T02:31:16;1583.15;;;999.90;;
9222;SDS011;7557;51.698;3.942;2023-07-13T02:33:43;1601.95;;;999.90;;
9222;SDS011;7557;51.698;3.942;2023-07-13T02:36:11;1462.18;;;999.90;;
9222;SDS011;7557;51.698;3.942;2023-07-13T02:38:39;1523.55;;;999.90;;
9222;SDS011;7557;51.698;3.942;2023-07-13T02:41:07;1579.65;;;999.90;;
9222;SDS011;7557;51.698;3.942;2023-07-13T02:43:35;1578.07;;;999.90;;
9222;SDS011;7557;51.698;3.942;2023-07-13T02:46:03;1631.28;;;999.90;;
9222;SDS011;7557;51.698;3.942;2023-07-13T02:48:33;1649.65;;;999.90;;
9222;SDS011;7557;51.698;3.942;2023-07-13T02:51:01;1661.30;;;999.90;;
9222;SDS011;7557;51.698;3.942;2023-07-13T02:53:28;1635.00;;;999.90;;
9222;SDS011;7557;51.698;3.942;2023-07-13T02:55:55;1652.28;;;999.90;;
9222;SDS011;7557;51.698;3.942;2023-07-13T02:58:22;1676.65;;;999.90;;
9222;SDS011;7557;51.698;3.942;2023-07-13T03:00:50;1638.63;;;999.90;;
9222;SDS011;7557;51.698;3.942;2023-07-13T03:03:17;1658.00;;;999.90;;
9222;SDS011;7557;51.698;3.942;2023-07-13T03:05:46;1606.07;;;999.90;;
9222;SDS011;7557;51.698;3.942;2023-07-13T03:08:15;1655.57;;;999.90;;
9222;SDS011;7557;51.698;3.942;2023-07-13T03:10:43;1605.03;;;999.90;;
9222;SDS011;7557;51.698;3.942;2023-07-13T03:13:11;1719.28;;;999.90;;
9222;SDS011;7557;51.698;3.942;2023-07-13T03:15:38;1632.55;;;999.90;;
9222;SDS011;7557;51.698;3.942;2023-07-13T03:18:05;1635.32;;;999.90;;
9222;SDS011;7557;51.698;3.942;2023-07-13T03:20:32;1614.80;;;999.90;;
9222;SDS011;7557;51.698;3.942;2023-07-13T03:23:01;1611.25;;;999.90;;
9222;SDS011;7557;51.698;3.942;2023-07-13T03:25:30;1652.10;;;999.90;;
9222;SDS011;7557;51.698;3.942;2023-07-13T03:27:57;1569.82;;;999.90;;
9222;SDS011;7557;51.698;3.942;2023-07-13T03:30:24;1618.97;;;999.90;;
9222;SDS011;7557;51.698;3.942;2023-07-13T03:32:53;1575.30;;;999.90;;
9222;SDS011;7557;51.698;3.942;2023-07-13T03:35:21;1561.50;;;999.90;;
9222;SDS011;7557;51.698;3.942;2023-07-13T03:37:48;1566.43;;;999.90;;
9222;SDS011;7557;51.698;3.942;2023-07-13T03:40:18;1597.97;;;999.90;;
9222;SDS011;7557;51.698;3.942;2023-07-13T03:42:46;1557.65;;;999.90;;
9222;SDS011;7557;51.698;3.942;2023-07-13T03:45:13;1530.75;;;999.90;;
9222;SDS011;7557;51.698;3.942;2023-07-13T03:47:41;1583.15;;;999.90;;
9222;SDS011;7557;51.698;3.942;2023-07-13T03:50:08;1524.72;;;999.90;;
9222;SDS011;7557;51.698;3.942;2023-07-13T03:52:36;1533.80;;;999.90;;
9222;SDS011;7557;51.698;3.942;2023-07-13T03:55:04;1541.93;;;999.90;;
9222;SDS011;7557;51.698;3.942;2023-07-13T03:57:34;1507.95;;;999.90;;
9222;SDS011;7557;51.698;3.942;2023-07-13T04:00:02;1510.50;;;999.90;;
9222;SDS011;7557;51.698;3.942;2023-07-13T04:02:34;1456.95;;;999.90;;
9222;SDS011;7557;51.698;3.942;2023-07-13T04:05:02;1524.20;;;999.90;;
9222;SDS011;7557;51.698;3.942;2023-07-13T04:07:30;1582.53;;;999.90;;
9222;SDS011;7557;51.698;3.942;2023-07-13T04:10:01;1501.38;;;999.90;;
9222;SDS011;7557;51.698;3.942;2023-07-13T04:12:29;1574.28;;;999.90;;
9222;SDS011;7557;51.698;3.942;2023-07-13T04:14:57;1500.60;;;999.90;;
9222;SDS011;7557;51.698;3.942;2023-07-13T04:17:25;1491.97;;;999.90;;
9222;SDS011;7557;51.698;3.942;2023-07-13T04:19:52;1480.45;;;999.90;;
9222;SDS011;7557;51.698;3.942;2023-07-13T04:22:20;1339.22;;;999.90;;
9222;SDS011;7557;51.698;3.942;2023-07-13T04:24:48;1511.15;;;999.90;;
9222;SDS011;7557;51.698;3.942;2023-07-13T04:27:15;1488.60;;;999.90;;
9222;SDS011;7557;51.698;3.942;2023-07-13T04:29:43;1411.35;;;999.90;;
9222;SDS011;7557;51.698;3.942;2023-07-13T04:32:12;1479.85;;;999.90;;
9222;SDS011;7557;51.698;3.942;2023-07-13T04:34:39;1449.20;;;999.90;;
9222;SDS011;7557;51.698;3.942;2023-07-13T04:37:07;1448.00;;;999.90;;
9222;SDS011;7557;51.698;3.942;2023-07-13T04:39:35;1482.15;;;999.90;;
9222;SDS011;7557;51.698;3.942;2023-07-13T04:42:02;1366.93;;;999.90;;
9222;SDS011;7557;51.698;3.942;2023-07-13T04:44:30;1418.72;;;999.90;;
9222;SDS011;7557;51.698;3.942;2023-07-13T04:46:57;1389.88;;;999.90;;
9222;SDS011;7557;51.698;3.942;2023-07-13T04:49:26;1478.15;;;999.90;;
9222;SDS011;7557;51.698;3.942;2023-07-13T04:51:53;1494.60;;;999.90;;
9222;SDS011;7557;51.698;3.942;2023-07-13T04:54:21;1438.43;;;999.90;;
9222;SDS011;7557;51.698;3.942;2023-07-13T04:56:49;1408.63;;;999.90;;
9222;SDS011;7557;51.698;3.942;2023-07-13T04:59:18;1397.22;;;999.90;;
9222;SDS011;7557;51.698;3.942;2023-07-13T05:01:45;1388.35;;;999.90;;
9222;SDS011;7557;51.698;3.942;2023-07-13T05:04:13;1469.88;;;999.90;;
9222;SDS011;7557;51.698;3.942;2023-07-13T05:06:42;1406.13;;;999.90;;
9222;SDS011;7557;51.698;3.942;2023-07-13T05:09:09;1236.63;;;999.90;;
9222;SDS011;7557;51.698;3.942;2023-07-13T05:11:37;1388.82;;;999.90;;
9222;SDS011;7557;51.698;3.942;2023-07-13T05:14:05;1432.97;;;999.90;;
9222;SDS011;7557;51.698;3.942;2023-07-13T05:16:32;1393.93;;;999.90;;
9222;SDS011;7557;51.698;3.942;2023-07-13T05:18:59;1468.75;;;999.90;;
9222;SDS011;7557;51.698;3.942;2023-07-13T05:21:27;1284.10;;;999.90;;
9222;SDS011;7557;51.698;3.942;2023-07-13T05:23:56;1255.40;;;999.90;;
9222;SDS011;7557;51.698;3.942;2023-07-13T05:26:23;1235.97;;;999.90;;
9222;SDS011;7557;51.698;3.942;2023-07-13T05:28:50;1124.10;;;999.90;;
9222;SDS011;7557;51.698;3.942;2023-07-13T05:31:18;1048.00;;;966.80;;
9222;SDS011;7557;51.698;3.942;2023-07-13T05:33:45;1029.20;;;951.58;;
9222;SDS011;7557;51.698;3.942;2023-07-13T05:36:13;949.50;;;883.03;;
9222;SDS011;7557;51.698;3.942;2023-07-13T05:38:40;932.08;;;870.17;;
9222;SDS011;7557;51.698;3.942;2023-07-13T05:41:09;898.28;;;844.10;;
9222;SDS011;7557;51.698;3.942;2023-07-13T05:43:37;855.42;;;805.58;;
9222;SDS011;7557;51.698;3.942;2023-07-13T05:46:04;885.30;;;833.08;;
9222;SDS011;7557;51.698;3.942;2023-07-13T05:48:32;816.05;;;771.15;;
9222;SDS011;7557;51.698;3.942;2023-07-13T05:50:59;867.00;;;815.28;;
9222;SDS011;7557;51.698;3.942;2023-07-13T05:53:27;939.35;;;877.20;;
9222;SDS011;7557;51.698;3.942;2023-07-13T05:55:55;956.15;;;893.47;;
9222;SDS011;7557;51.698;3.942;2023-07-13T05:58:24;793.67;;;749.85;;
9222;SDS011;7557;51.698;3.942;2023-07-13T06:00:58;808.90;;;765.42;;
9222;SDS011;7557;51.698;3.942;2023-07-13T06:03:29;830.25;;;785.50;;
9222;SDS011;7557;51.698;3.942;2023-07-13T06:05:56;863.30;;;813.17;;
9222;SDS011;7557;51.698;3.942;2023-07-13T06:08:25;871.75;;;820.60;;
9222;SDS011;7557;51.698;3.942;2023-07-13T06:10:53;947.75;;;884.85;;
9222;SDS011;7557;51.698;3.942;2023-07-13T06:13:20;956.47;;;891.97;;
9222;SDS011;7557;51.698;3.942;2023-07-13T06:15:49;964.35;;;898.72;;
9222;SDS011;7557;51.698;3.942;2023-07-13T06:18:17;946.83;;;884.50;;
9222;SDS011;7557;51.698;3.942;2023-07-13T06:20:44;940.67;;;878.92;;
9222;SDS011;7557;51.698;3.942;2023-07-13T06:23:12;957.65;;;893.38;;
9222;SDS011;7557;51.698;3.942;2023-07-13T06:25:39;976.80;;;909.70;;
9222;SDS011;7557;51.698;3.942;2023-07-13T06:28:07;956.45;;;891.97;;
9222;SDS011;7557;51.698;3.942;2023-07-13T06:30:34;1014.45;;;938.72;;
9222;SDS011;7557;51.698;3.942;2023-07-13T06:33:03;1013.47;;;939.85;;
9222;SDS011;7557;51.698;3.942;2023-07-13T06:35:30;972.17;;;905.72;;
9222;SDS011;7557;51.698;3.942;2023-07-13T06:37:57;960.97;;;897.55;;
9222;SDS011;7557;51.698;3.942;2023-07-13T06:40:25;914.85;;;856.97;;
9222;SDS011;7557;51.698;3.942;2023-07-13T06:42:54;939.35;;;879.25;;
9222;SDS011;7557;51.698;3.942;2023-07-13T06:45:21;974.00;;;906.42;;
9222;SDS011;7557;51.698;3.942;2023-07-13T06:47:48;908.17;;;852.65;;
9222;SDS011;7557;51.698;3.942;2023-07-13T06:50:17;846.85;;;798.97;;
9222;SDS011;7557;51.698;3.942;2023-07-13T06:52:45;853.85;;;805.25;;
9222;SDS011;7557;51.698;3.942;2023-07-13T06:55:12;874.47;;;824.80;;
9222;SDS011;7557;51.698;3.942;2023-07-13T06:57:40;902.50;;;848.22;;
9222;SDS011;7557;51.698;3.942;2023-07-13T07:00:08;917.00;;;859.72;;
9222;SDS011;7557;51.698;3.942;2023-07-13T07:02:36;915.60;;;857.28;;
9222;SDS011;7557;51.698;3.942;2023-07-13T07:05:04;884.10;;;830.83;;
9222;SDS011;7557;51.698;3.942;2023-07-13T07:07:33;899.75;;;845.42;;
9222;SDS011;7557;51.698;3.942;2023-07-13T07:10:01;904.95;;;850.03;;
9222;SDS011;7557;51.698;3.942;2023-07-13T07:12:29;894.95;;;841.53;;
9222;SDS011;7557;51.698;3.942;2023-07-13T07:14:56;858.28;;;809.13;;
9222;SDS011;7557;51.698;3.942;2023-07-13T07:17:24;884.33;;;832.85;;
9222;SDS011;7557;51.698;3.942;2023-07-13T07:19:51;857.30;;;807.47;;
9222;SDS011;7557;51.698;3.942;2023-07-13T07:22:19;909.67;;;852.72;;
9222;SDS011;7557;51.698;3.942;2023-07-13T07:24:48;878.90;;;828.08;;
9222;SDS011;7557;51.698;3.942;2023-07-13T07:27:16;863.33;;;813.45;;
9222;SDS011;7557;51.698;3.942;2023-07-13T07:29:43;889.15;;;836.10;;
9222;SDS011;7557;51.698;3.942;2023-07-13T07:32:11;892.33;;;839.03;;
9222;SDS011;7557;51.698;3.942;2023-07-13T07:34:38;915.83;;;858.70;;
9222;SDS011;7557;51.698;3.942;2023-07-13T07:37:06;913.00;;;856.00;;
9222;SDS011;7557;51.698;3.942;2023-07-13T07:39:33;921.20;;;862.65;;
9222;SDS011;7557;51.698;3.942;2023-07-13T07:42:02;923.92;;;864.72;;
9222;SDS011;7557;51.698;3.942;2023-07-13T07:44:30;941.40;;;879.72;;
9222;SDS011;7557;51.698;3.942;2023-07-13T07:46:57;949.25;;;887.60;;
9222;SDS011;7557;51.698;3.942;2023-07-13T07:49:25;934.22;;;873.60;;
9222;SDS011;7557;51.698;3.942;2023-07-13T07:51:52;889.83;;;836.28;;
9222;SDS011;7557;51.698;3.942;2023-07-13T07:54:19;900.80;;;846.72;;
9222;SDS011;7557;51.698;3.942;2023-07-13T07:56:47;841.95;;;794.53;;
9222;SDS011;7557;51.698;3.942;2023-07-13T07:59:15;843.53;;;794.83;;
9222;SDS011;7557;51.698;3.942;2023-07-13T08:01:44;869.75;;;817.90;;
9222;SDS011;7557;51.698;3.942;2023-07-13T08:04:13;864.00;;;813.15;;
9222;SDS011;7557;51.698;3.942;2023-07-13T08:06:40;855.17;;;805.05;;
9222;SDS011;7557;51.698;3.942;2023-07-13T08:09:08;846.28;;;797.78;;
9222;SDS011;7557;51.698;3.942;2023-07-13T08:11:35;951.30;;;888.47;;
9222;SDS011;7557;51.698;3.942;2023-07-13T08:14:03;908.53;;;848.80;;
9222;SDS011;7557;51.698;3.942;2023-07-13T08:16:32;896.65;;;840.03;;
9222;SDS011;7557;51.698;3.942;2023-07-13T08:18:59;835.78;;;786.95;;
9222;SDS011;7557;51.698;3.942;2023-07-13T08:21:27;842.10;;;793.00;;
9222;SDS011;7557;51.698;3.942;2023-07-13T08:23:55;934.55;;;868.92;;
9222;SDS011;7557;51.698;3.942;2023-07-13T08:26:22;899.88;;;842.25;;
9222;SDS011;7557;51.698;3.942;2023-07-13T08:28:50;804.22;;;760.25;;
9222;SDS011;7557;51.698;3.942;2023-07-13T08:31:17;792.10;;;747.42;;
9222;SDS011;7557;51.698;3.942;2023-07-13T08:33:46;791.70;;;746.33;;
9222;SDS011;7557;51.698;3.942;2023-07-13T08:36:13;929.42;;;865.65;;
9222;SDS011;7557;51.698;3.942;2023-07-13T08:38:41;929.83;;;866.47;;
9222;SDS011;7557;51.698;3.942;2023-07-13T08:41:12;888.70;;;832.35;;
9222;SDS011;7557;51.698;3.942;2023-07-13T08:43:41;835.92;;;786.22;;
9222;SDS011;7557;51.698;3.942;2023-07-13T08:46:13;792.38;;;749.08;;
9222;SDS011;7557;51.698;3.942;2023-07-13T08:48:44;873.78;;;820.00;;
9222;SDS011;7557;51.698;3.942;2023-07-13T08:51:21;873.47;;;820.00;;
9222;SDS011;7557;51.698;3.942;2023-07-13T08:53:57;884.30;;;828.85;;
9222;SDS011;7557;51.698;3.942;2023-07-13T08:56:28;929.42;;;867.40;;
9222;SDS011;7557;51.698;3.942;2023-07-13T08:58:57;865.75;;;813.22;;
9222;SDS011;7557;51.698;3.942;2023-07-13T09:01:28;848.00;;;797.35;;
9222;SDS011;7557;51.698;3.942;2023-07-13T09:04:02;751.63;;;711.75;;
9222;SDS011;7557;51.698;3.942;2023-07-13T09:06:36;772.25;;;728.75;;
9222;SDS011;7557;51.698;3.942;2023-07-13T09:09:15;769.85;;;728.95;;
9222;SDS011;7557;51.698;3.942;2023-07-13T09:11:52;787.42;;;745.38;;
9222;SDS011;7557;51.698;3.942;2023-07-13T09:14:39;709.95;;;675.00;;
9222;SDS011;7557;51.698;3.942;2023-07-13T09:17:14;633.35;;;604.78;;
9222;SDS011;7557;51.698;3.942;2023-07-13T09:19:48;441.67;;;424.15;;
9222;SDS011;7557;51.698;3.942;2023-07-13T09:22:23;619.53;;;591.05;;
9222;SDS011;7557;51.698;3.942;2023-07-13T09:24:55;711.03;;;674.90;;
9222;SDS011;7557;51.698;3.942;2023-07-13T09:27:29;476.80;;;457.05;;
9222;SDS011;7557;51.698;3.942;2023-07-13T09:30:02;666.15;;;633.72;;
9222;SDS011;7557;51.698;3.942;2023-07-13T09:32:45;387.10;;;372.48;;
9222;SDS011;7557;51.698;3.942;2023-07-13T09:35:18;524.83;;;501.80;;
9222;SDS011;7557;51.698;3.942;2023-07-13T09:37:48;587.88;;;561.55;;
9222;SDS011;7557;51.698;3.942;2023-07-13T09:40:20;690.72;;;657.92;;
9222;SDS011;7557;51.698;3.942;2023-07-13T09:42:52;730.50;;;693.45;;
9222;SDS011;7557;51.698;3.942;2023-07-13T09:45:26;718.60;;;683.13;;
9222;SDS011;7557;51.698;3.942;2023-07-13T09:47:59;646.40;;;616.55;;
9222;SDS011;7557;51.698;3.942;2023-07-13T09:50:33;598.50;;;569.80;;
9222;SDS011;7557;51.698;3.942;2023-07-13T09:53:01;616.08;;;587.35;;
9222;SDS011;7557;51.698;3.942;2023-07-13T09:55:30;587.90;;;562.08;;
9222;SDS011;7557;51.698;3.942;2023-07-13T09:58:02;585.70;;;560.47;;
9222;SDS011;7557;51.698;3.942;2023-07-13T10:00:31;614.85;;;587.25;;
9222;SDS011;7557;51.698;3.942;2023-07-13T10:03:00;565.42;;;541.50;;
9222;SDS011;7557;51.698;3.942;2023-07-13T10:05:38;593.42;;;566.40;;
9222;SDS011;7557;51.698;3.942;2023-07-13T10:08:18;598.22;;;570.45;;
9222;SDS011;7557;51.698;3.942;2023-07-13T10:10:53;320.67;;;308.90;;
9222;SDS011;7557;51.698;3.942;2023-07-13T10:13:29;227.05;;;219.30;;
9222;SDS011;7557;51.698;3.942;2023-07-13T10:16:01;305.58;;;294.58;;
9222;SDS011;7557;51.698;3.942;2023-07-13T10:18:34;365.92;;;352.27;;
9222;SDS011;7557;51.698;3.942;2023-07-13T10:21:12;320.33;;;308.75;;
9222;SDS011;7557;51.698;3.942;2023-07-13T10:23:42;339.80;;;327.42;;
9222;SDS011;7557;51.698;3.942;2023-07-13T10:26:15;289.67;;;279.50;;
9222;SDS011;7557;51.698;3.942;2023-07-13T10:28:49;382.02;;;367.27;;
9222;SDS011;7557;51.698;3.942;2023-07-13T10:31:22;223.55;;;215.52;;
9222;SDS011;7557;51.698;3.942;2023-07-13T10:33:50;307.50;;;296.50;;
9222;SDS011;7557;51.698;3.942;2023-07-13T10:36:22;486.80;;;467.02;;
9222;SDS011;7557;51.698;3.942;2023-07-13T10:38:57;275.25;;;265.50;;
9222;SDS011;7557;51.698;3.942;2023-07-13T10:41:29;323.85;;;312.30;;
9222;SDS011;7557;51.698;3.942;2023-07-13T10:44:01;421.52;;;405.60;;
9222;SDS011;7557;51.698;3.942;2023-07-13T10:46:36;381.77;;;367.33;;
9222;SDS011;7557;51.698;3.942;2023-07-13T10:49:05;259.02;;;249.93;;
9222;SDS011;7557;51.698;3.942;2023-07-13T10:51:36;325.85;;;314.42;;
9222;SDS011;7557;51.698;3.942;2023-07-13T10:54:11;317.20;;;305.90;;
9222;SDS011;7557;51.698;3.942;2023-07-13T10:56:43;428.08;;;411.50;;
9222;SDS011;7557;51.698;3.942;2023-07-13T10:59:13;385.35;;;370.85;;
9222;SDS011;7557;51.698;3.942;2023-07-13T11:01:50;368.38;;;354.65;;
9222;SDS011;7557;51.698;3.942;2023-07-13T11:04:21;439.58;;;420.17;;
9222;SDS011;7557;51.698;3.942;2023-07-13T11:06:52;257.75;;;248.82;;
9222;SDS011;7557;51.698;3.942;2023-07-13T11:09:34;196.93;;;190.10;;
9222;SDS011;7557;51.698;3.942;2023-07-13T11:12:08;183.45;;;176.75;;
9222;SDS011;7557;51.698;3.942;2023-07-13T11:15:06;261.17;;;252.27;;
9222;SDS011;7557;51.698;3.942;2023-07-13T11:17:45;272.27;;;263.20;;
9222;SDS011;7557;51.698;3.942;2023-07-13T11:20:22;204.98;;;197.80;;
9222;SDS011;7557;51.698;3.942;2023-07-13T11:23:09;89.63;;;86.63;;
9222;SDS011;7557;51.698;3.942;2023-07-13T11:25:46;217.35;;;209.57;;
9222;SDS011;7557;51.698;3.942;2023-07-13T11:31:01;287.05;;;277.20;;
9222;SDS011;7557;51.698;3.942;2023-07-13T11:33:45;365.42;;;352.00;;
9222;SDS011;7557;51.698;3.942;2023-07-13T11:36:23;220.02;;;212.27;;
9222;SDS011;7557;51.698;3.942;2023-07-13T11:39:03;363.85;;;350.08;;
9222;SDS011;7557;51.698;3.942;2023-07-13T11:41:43;318.60;;;306.95;;
9222;SDS011;7557;51.698;3.942;2023-07-13T11:44:16;562.20;;;537.15;;
9222;SDS011;7557;51.698;3.942;2023-07-13T11:46:46;716.15;;;679.15;;
9222;SDS011;7557;51.698;3.942;2023-07-13T11:49:16;613.50;;;585.42;;
9222;SDS011;7557;51.698;3.942;2023-07-13T11:51:45;669.88;;;638.17;;
9222;SDS011;7557;51.698;3.942;2023-07-13T11:54:22;263.55;;;254.32;;
9222;SDS011;7557;51.698;3.942;2023-07-13T11:56:53;457.48;;;438.40;;
9222;SDS011;7557;51.698;3.942;2023-07-13T11:59:23;617.55;;;588.10;;
9222;SDS011;7557;51.698;3.942;2023-07-13T12:01:51;254.30;;;244.93;;
9222;SDS011;7557;51.698;3.942;2023-07-13T12:04:21;358.25;;;344.58;;
9222;SDS011;7557;51.698;3.942;2023-07-13T12:06:55;246.00;;;237.70;;
9222;SDS011;7557;51.698;3.942;2023-07-13T12:09:27;258.00;;;249.07;;
9222;SDS011;7557;51.698;3.942;2023-07-13T12:11:56;419.02;;;402.45;;
9222;SDS011;7557;51.698;3.942;2023-07-13T12:14:26;413.05;;;396.92;;
9222;SDS011;7557;51.698;3.942;2023-07-13T12:16:54;133.45;;;128.70;;
9222;SDS011;7557;51.698;3.942;2023-07-13T12:19:23;417.92;;;400.55;;
9222;SDS011;7557;51.698;3.942;2023-07-13T12:21:53;211.63;;;204.50;;
9222;SDS011;7557;51.698;3.942;2023-07-13T12:24:22;264.40;;;255.18;;
9222;SDS011;7557;51.698;3.942;2023-07-13T12:26:52;274.70;;;265.08;;
9222;SDS011;7557;51.698;3.942;2023-07-13T12:29:21;244.63;;;235.85;;
9222;SDS011;7557;51.698;3.942;2023-07-13T12:31:49;192.65;;;186.00;;
9222;SDS011;7557;51.698;3.942;2023-07-13T12:34:18;197.32;;;190.65;;
9222;SDS011;7557;51.698;3.942;2023-07-13T12:36:48;223.32;;;215.48;;
9222;SDS011;7557;51.698;3.942;2023-07-13T12:39:18;230.13;;;222.27;;
9222;SDS011;7557;51.698;3.942;2023-07-13T12:41:49;247.25;;;238.90;;
9222;SDS011;7557;51.698;3.942;2023-07-13T12:44:21;203.45;;;196.60;;
9222;SDS011;7557;51.698;3.942;2023-07-13T12:46:53;532.05;;;509.63;;
9222;SDS011;7557;51.698;3.942;2023-07-13T12:49:24;260.33;;;251.23;;
9222;SDS011;7557;51.698;3.942;2023-07-13T12:51:58;356.85;;;342.60;;
9222;SDS011;7557;51.698;3.942;2023-07-13T12:54:28;401.60;;;386.05;;
9222;SDS011;7557;51.698;3.942;2023-07-13T12:56:57;402.42;;;386.48;;
9222;SDS011;7557;51.698;3.942;2023-07-13T12:59:31;574.42;;;548.28;;
9222;SDS011;7557;51.698;3.942;2023-07-13T13:02:07;534.40;;;510.75;;
9222;SDS011;7557;51.698;3.942;2023-07-13T13:04:49;628.17;;;599.00;;
9222;SDS011;7557;51.698;3.942;2023-07-13T13:07:16;541.53;;;517.80;;
9222;SDS011;7557;51.698;3.942;2023-07-13T13:09:45;684.97;;;651.53;;
9222;SDS011;7557;51.698;3.942;2023-07-13T13:12:13;450.20;;;432.58;;
9222;SDS011;7557;51.698;3.942;2023-07-13T13:14:43;655.17;;;623.58;;
9222;SDS011;7557;51.698;3.942;2023-07-13T13:17:16;706.97;;;671.90;;
9222;SDS011;7557;51.698;3.942;2023-07-13T13:19:46;498.45;;;477.00;;
9222;SDS011;7557;51.698;3.942;2023-07-13T13:22:15;693.25;;;659.85;;
9222;SDS011;7557;51.698;3.942;2023-07-13T13:24:42;665.40;;;633.53;;
9222;SDS011;7557;51.698;3.942;2023-07-13T13:27:13;646.28;;;616.08;;
9222;SDS011;7557;51.698;3.942;2023-07-13T13:29:45;604.33;;;577.15;;
9222;SDS011;7557;51.698;3.942;2023-07-13T13:32:13;637.65;;;608.35;;
9222;SDS011;7557;51.698;3.942;2023-07-13T13:34:41;384.30;;;369.23;;
9222;SDS011;7557;51.698;3.942;2023-07-13T13:37:16;521.35;;;498.70;;
9222;SDS011;7557;51.698;3.942;2023-07-13T13:39:45;220.85;;;213.23;;
9222;SDS011;7557;51.698;3.942;2023-07-13T13:42:13;264.40;;;254.98;;
9222;SDS011;7557;51.698;3.942;2023-07-13T13:44:41;372.75;;;357.67;;
9222;SDS011;7557;51.698;3.942;2023-07-13T13:47:17;307.15;;;295.92;;
9222;SDS011;7557;51.698;3.942;2023-07-13T13:49:55;265.00;;;255.77;;
9222;SDS011;7557;51.698;3.942;2023-07-13T13:52:23;556.03;;;531.30;;
9222;SDS011;7557;51.698;3.942;2023-07-13T13:54:51;488.88;;;467.92;;
9222;SDS011;7557;51.698;3.942;2023-07-13T13:57:21;413.55;;;397.55;;
9222;SDS011;7557;51.698;3.942;2023-07-13T13:59:51;365.25;;;351.25;;
9222;SDS011;7557;51.698;3.942;2023-07-13T14:02:22;348.20;;;334.77;;
9222;SDS011;7557;51.698;3.942;2023-07-13T14:04:53;295.35;;;284.52;;
9222;SDS011;7557;51.698;3.942;2023-07-13T14:07:23;652.95;;;621.10;;
9222;SDS011;7557;51.698;3.942;2023-07-13T14:09:51;660.15;;;629.10;;
9222;SDS011;7557;51.698;3.942;2023-07-13T14:12:19;488.73;;;468.40;;
9222;SDS011;7557;51.698;3.942;2023-07-13T14:14:49;609.72;;;582.33;;
9222;SDS011;7557;51.698;3.942;2023-07-13T14:17:22;241.55;;;233.35;;
9222;SDS011;7557;51.698;3.942;2023-07-13T14:19:52;365.17;;;351.17;;
9222;SDS011;7557;51.698;3.942;2023-07-13T14:22:22;273.88;;;264.17;;
9222;SDS011;7557;51.698;3.942;2023-07-13T14:24:51;366.33;;;352.73;;
9222;SDS011;7557;51.698;3.942;2023-07-13T14:27:19;284.40;;;274.58;;
9222;SDS011;7557;51.698;3.942;2023-07-13T14:29:47;388.35;;;374.02;;
9222;SDS011;7557;51.698;3.942;2023-07-13T14:32:16;352.98;;;339.98;;